createdAt,value
2023-02-03T00:02:30.075Z,33.80
2023-02-03T00:05:15.453Z,33.37
2023-02-03T00:08:00.798Z,33.30
2023-02-03T00:10:46.451Z,31.73
2023-02-03T00:13:31.609Z,33.17
2023-02-03T00:16:16.747Z,32.83
2023-02-03T00:19:02.617Z,27.93
2023-02-03T00:21:47.409Z,31.83
2023-02-03T00:24:32.257Z,31.83
2023-02-03T00:27:17.593Z,32.33
2023-02-03T00:30:02.560Z,33.07
2023-02-03T00:32:47.821Z,34.77
2023-02-03T00:35:32.759Z,35.00
2023-02-03T00:38:18.568Z,35.27
2023-02-03T00:41:03.837Z,33.07
2023-02-03T00:43:49.806Z,33.47
2023-02-03T00:46:34.848Z,32.83
2023-02-03T00:49:20.375Z,31.20
2023-02-03T00:52:05.483Z,34.83
2023-02-03T00:54:50.735Z,33.77
2023-02-03T00:57:35.873Z,35.13
2023-02-03T01:00:21.276Z,35.53
2023-02-03T01:03:06.492Z,35.37
2023-02-03T01:05:51.901Z,35.13
2023-02-03T01:08:37.131Z,34.07
2023-02-03T01:11:25.224Z,32.57
2023-02-03T01:14:10.315Z,32.30
2023-02-03T01:16:55.928Z,32.97
2023-02-03T01:19:40.907Z,35.13
2023-02-03T01:22:25.818Z,31.77
2023-02-03T01:25:11.304Z,33.07
2023-02-03T01:27:56.617Z,32.90
2023-02-03T01:30:42.024Z,32.27
2023-02-03T01:33:27.477Z,32.27
2023-02-03T01:36:13.117Z,31.53
2023-02-03T01:38:58.316Z,30.50
2023-02-03T01:41:43.736Z,29.77
2023-02-03T01:44:55.259Z,30.20
2023-02-03T01:47:48.346Z,29.70
2023-02-03T01:50:36.834Z,29.57
2023-02-03T01:53:21.989Z,31.27
2023-02-03T01:56:08.202Z,29.57
2023-02-03T01:58:53.970Z,29.20
2023-02-03T02:01:39.839Z,28.90
2023-02-03T02:04:34.214Z,27.23
2023-02-03T02:07:19.452Z,26.80
2023-02-03T02:10:05.444Z,27.30
2023-02-03T02:12:51.585Z,25.83
2023-02-03T02:15:56.251Z,27.50
2023-02-03T02:19:00.108Z,25.70
2023-02-03T02:21:54.669Z,23.87
2023-02-03T02:24:50.346Z,24.93
2023-02-03T02:27:59.850Z,24.57
2023-02-03T02:31:08.610Z,24.83
2023-02-03T02:34:04.725Z,24.90
2023-02-03T02:37:20.983Z,25.10
2023-02-03T02:40:24.231Z,23.57
2023-02-03T02:43:16.861Z,24.23
2023-02-03T02:46:08.981Z,23.90
2023-02-03T02:49:07.455Z,22.00
2023-02-03T02:51:53.741Z,22.63
2023-02-03T02:54:42.142Z,22.37
2023-02-03T02:57:30.346Z,22.00
2023-02-03T03:00:15.806Z,21.47
2023-02-03T03:03:15.515Z,22.30
2023-02-03T03:06:08.989Z,22.23
2023-02-03T03:09:06.038Z,20.23
2023-02-03T03:11:56.167Z,20.50
2023-02-03T03:14:45.620Z,21.13
2023-02-03T03:17:35.181Z,21.13
2023-02-03T03:20:25.726Z,20.30
2023-02-03T03:23:22.437Z,19.90
2023-02-03T03:26:19.989Z,19.90
2023-02-03T03:29:21.062Z,19.63
2023-02-03T03:32:06.442Z,19.83
2023-02-03T03:34:52.369Z,20.03
2023-02-03T03:37:49.633Z,20.90
2023-02-03T03:40:42.703Z,19.23
2023-02-03T03:43:33.027Z,19.43
2023-02-03T03:46:27.059Z,18.60
2023-02-03T03:49:13.651Z,18.30
2023-02-03T03:52:03.173Z,18.70
2023-02-03T03:54:50.275Z,18.93
2023-02-03T03:57:45.169Z,18.70
2023-02-03T04:00:33.749Z,17.73
2023-02-03T04:03:25.395Z,17.93
2023-02-03T04:06:12.165Z,16.67
2023-02-03T04:08:57.374Z,17.07
2023-02-03T04:11:42.493Z,16.70
2023-02-03T04:14:31.666Z,16.23
2023-02-03T04:17:16.829Z,16.17
2023-02-03T04:20:04.259Z,16.23
2023-02-03T04:22:50.197Z,16.40
2023-02-03T04:25:35.614Z,14.37
2023-02-03T04:28:21.039Z,15.97
2023-02-03T04:31:06.710Z,15.57
2023-02-03T04:33:52.103Z,13.20
2023-02-03T04:36:37.532Z,15.00
2023-02-03T04:39:22.943Z,15.37
2023-02-03T04:42:08.050Z,15.50
2023-02-03T04:44:53.253Z,15.07
2023-02-03T04:47:39.490Z,14.20
2023-02-03T04:50:25.671Z,13.90
2023-02-03T04:53:10.939Z,14.20
2023-02-03T04:55:56.434Z,13.50
2023-02-03T04:58:41.523Z,13.93
2023-02-03T05:01:26.849Z,13.80
2023-02-03T05:04:12.458Z,13.70
2023-02-03T05:06:57.702Z,12.20
2023-02-03T05:09:42.939Z,13.93
2023-02-03T05:12:28.202Z,13.97
2023-02-03T05:15:13.779Z,12.87
2023-02-03T05:17:58.681Z,12.50
2023-02-03T05:20:43.491Z,11.33
2023-02-03T05:23:29.176Z,12.90
2023-02-03T05:26:14.134Z,11.43
2023-02-03T05:28:59.109Z,12.80
2023-02-03T05:31:44.440Z,12.20
2023-02-03T05:34:29.562Z,12.80
2023-02-03T05:37:14.378Z,11.73
2023-02-03T05:39:59.191Z,12.47
2023-02-03T05:42:49.144Z,12.30
2023-02-03T05:45:34.626Z,12.37
2023-02-03T05:48:20.049Z,12.00
2023-02-03T05:51:05.846Z,11.70
2023-02-03T05:53:50.813Z,12.50
2023-02-03T05:56:35.953Z,11.63
2023-02-03T05:59:21.151Z,11.57
2023-02-03T06:02:06.714Z,12.10
2023-02-03T06:04:51.504Z,12.33
2023-02-03T06:07:36.709Z,11.97
2023-02-03T06:10:22.657Z,10.97
2023-02-03T06:13:15.236Z,11.87
2023-02-03T06:16:01.065Z,12.13
2023-02-03T06:18:46.090Z,11.80
2023-02-03T06:21:31.000Z,12.00
2023-02-03T06:24:16.282Z,12.27
2023-02-03T06:27:01.743Z,12.20
2023-02-03T06:29:46.698Z,12.40
2023-02-03T06:32:31.639Z,13.73
2023-02-03T06:35:17.450Z,13.10
2023-02-03T06:38:02.465Z,12.63
2023-02-03T06:40:48.439Z,13.17
2023-02-03T06:43:33.746Z,13.57
2023-02-03T06:46:19.468Z,13.00
2023-02-03T06:49:04.687Z,12.90
2023-02-03T06:51:49.975Z,12.43
2023-02-03T06:54:35.179Z,10.97
2023-02-03T06:57:20.684Z,10.93
2023-02-03T07:00:06.453Z,11.67
2023-02-03T07:02:56.722Z,12.40
2023-02-03T07:05:42.051Z,11.37
2023-02-03T07:08:27.449Z,11.63
2023-02-03T07:11:13.196Z,11.40
2023-02-03T07:13:58.797Z,11.83
2023-02-03T07:16:44.078Z,10.83
2023-02-03T07:19:29.482Z,12.37
2023-02-03T07:22:14.955Z,12.53
2023-02-03T07:25:00.000Z,11.97
2023-02-03T07:27:45.412Z,12.20
2023-02-03T07:30:31.197Z,12.20
2023-02-03T07:33:16.837Z,13.07
2023-02-03T07:36:02.025Z,12.60
2023-02-03T07:38:46.970Z,12.27
2023-02-03T07:41:32.237Z,12.53
2023-02-03T07:44:19.834Z,12.60
2023-02-03T07:47:04.948Z,11.63
2023-02-03T07:49:49.950Z,11.37
2023-02-03T07:52:34.921Z,11.40
2023-02-03T07:55:19.891Z,10.53
2023-02-03T07:58:05.718Z,10.77
2023-02-03T08:00:50.632Z,10.43
2023-02-03T08:03:35.660Z,11.73
2023-02-03T08:06:20.729Z,11.43
2023-02-03T08:09:05.969Z,12.83
2023-02-03T08:11:50.985Z,12.27
2023-02-03T08:14:36.138Z,16.17
2023-02-03T08:17:21.025Z,13.40
2023-02-03T08:20:07.285Z,13.20
2023-02-03T08:22:53.008Z,13.77
2023-02-03T08:25:37.962Z,13.60
2023-02-03T08:28:23.911Z,13.93
2023-02-03T08:31:10.443Z,13.20
2023-02-03T08:33:55.886Z,14.40
2023-02-03T08:36:41.191Z,14.30
2023-02-03T08:39:26.432Z,14.23
2023-02-03T08:42:11.296Z,14.20
2023-02-03T08:44:57.219Z,14.63
2023-02-03T08:47:42.212Z,14.87
2023-02-03T08:50:27.896Z,15.50
2023-02-03T08:53:13.031Z,14.57
2023-02-03T08:55:58.060Z,13.97
2023-02-03T08:58:43.011Z,13.97
2023-02-03T09:01:28.733Z,13.00
2023-02-03T09:04:16.269Z,12.70
2023-02-03T09:07:01.687Z,11.40
2023-02-03T09:09:47.472Z,11.60
2023-02-03T09:12:32.587Z,10.80
2023-02-03T09:15:18.215Z,10.80
2023-02-03T09:18:04.007Z,10.27
2023-02-03T09:20:48.892Z,10.67
2023-02-03T09:23:34.554Z,10.50
2023-02-03T09:26:19.716Z,10.33
2023-02-03T09:29:05.271Z,10.17
2023-02-03T09:31:51.717Z,10.10
2023-02-03T09:34:36.986Z,10.00
2023-02-03T09:37:22.241Z,9.90
2023-02-03T09:40:17.924Z,9.40
2023-02-03T09:43:21.058Z,10.30
2023-02-03T09:46:12.050Z,9.73
2023-02-03T09:49:02.616Z,9.40
2023-02-03T09:51:55.794Z,10.03
2023-02-03T09:55:00.366Z,9.90
2023-02-03T09:58:05.731Z,9.20
2023-02-03T10:00:54.292Z,9.53
2023-02-03T10:03:42.712Z,9.07
2023-02-03T10:06:41.696Z,9.07
2023-02-03T10:09:56.668Z,9.67
2023-02-03T10:12:52.617Z,9.03
2023-02-03T10:16:16.590Z,10.40
2023-02-03T10:19:09.295Z,9.20
2023-02-03T10:21:59.173Z,9.67
2023-02-03T10:25:15.968Z,9.60
2023-02-03T10:28:04.809Z,8.90
2023-02-03T10:31:20.331Z,9.00
2023-02-03T10:34:17.207Z,10.20
2023-02-03T10:37:11.134Z,8.90
2023-02-03T10:39:57.631Z,10.03
2023-02-03T10:42:46.309Z,11.07
2023-02-03T10:45:36.257Z,11.23
2023-02-03T10:48:23.003Z,10.97
2023-02-03T10:51:30.198Z,10.97
2023-02-03T10:54:33.316Z,10.67
2023-02-03T10:57:18.939Z,10.20
2023-02-03T11:19:05.802Z,8.60
2023-02-03T11:21:53.568Z,8.90
2023-02-03T11:24:41.715Z,8.43
2023-02-03T11:27:31.081Z,8.30
2023-02-03T11:30:24.525Z,8.27
2023-02-03T11:33:19.374Z,8.97
2023-02-03T11:36:04.967Z,8.53
2023-02-03T11:38:50.085Z,8.33
2023-02-03T11:41:38.879Z,7.67
2023-02-03T11:44:26.816Z,7.83
2023-02-03T11:47:14.831Z,8.53
2023-02-03T11:50:18.878Z,7.93
2023-02-03T11:53:23.985Z,7.93
2023-02-03T11:56:22.689Z,7.10
2023-02-03T11:59:25.993Z,7.40
2023-02-03T12:02:42.639Z,5.57
2023-02-03T12:05:27.991Z,5.93
2023-02-03T12:08:25.309Z,5.50
2023-02-03T12:11:38.949Z,5.27
2023-02-03T12:14:36.623Z,5.10
2023-02-03T12:17:42.599Z,10.03
2023-02-03T12:21:00.333Z,5.93
2023-02-03T12:24:09.506Z,5.17
2023-02-03T12:27:16.537Z,5.37
2023-02-03T12:30:03.980Z,5.53
2023-02-03T12:33:00.211Z,5.20
2023-02-03T12:35:52.078Z,4.63
2023-02-03T12:38:43.301Z,4.90
2023-02-03T12:41:34.347Z,5.40
2023-02-03T12:44:47.088Z,5.73
2023-02-03T12:47:50.989Z,5.53
2023-02-03T12:50:42.105Z,5.37
2023-02-03T12:53:34.469Z,5.10
2023-02-03T12:56:27.685Z,5.60
2023-02-03T12:59:23.439Z,5.70
2023-02-03T13:02:18.646Z,4.97
2023-02-03T13:05:27.750Z,5.93
2023-02-03T13:08:36.125Z,5.83
2023-02-03T13:11:28.628Z,5.60
2023-02-03T13:14:13.650Z,5.30
2023-02-03T13:17:08.328Z,5.87
2023-02-03T13:19:58.269Z,5.80
2023-02-03T13:22:43.131Z,6.20
2023-02-03T13:26:14.083Z,6.03
2023-02-03T13:29:23.844Z,5.70
2023-02-03T13:32:20.892Z,5.63
2023-02-03T13:35:21.698Z,6.00
2023-02-03T13:38:24.859Z,5.73
2023-02-03T13:41:19.334Z,5.33
2023-02-03T13:44:07.638Z,5.77
2023-02-03T13:46:53.862Z,5.53
2023-02-03T13:49:39.961Z,5.87
2023-02-03T13:52:32.969Z,5.37
2023-02-03T13:55:27.940Z,5.90
2023-02-03T13:58:37.957Z,5.67
2023-02-03T14:01:35.674Z,5.87
2023-02-03T14:04:24.235Z,5.20
2023-02-03T14:07:38.067Z,5.67
2023-02-03T14:10:23.505Z,5.80
2023-02-03T14:13:20.829Z,5.80
2023-02-03T14:16:25.498Z,5.70
2023-02-03T14:19:12.254Z,7.00
2023-02-03T14:22:03.964Z,6.27
2023-02-03T14:24:49.967Z,5.33
2023-02-03T14:27:35.214Z,5.83
2023-02-03T14:30:20.749Z,6.13
2023-02-03T14:33:05.947Z,5.87
2023-02-03T14:35:51.102Z,5.47
2023-02-03T14:38:36.290Z,5.33
2023-02-03T14:41:46.397Z,5.30
2023-02-03T14:44:59.307Z,6.27
2023-02-03T14:47:44.356Z,5.60
2023-02-03T14:50:44.241Z,5.53
2023-02-03T14:53:47.655Z,5.50
2023-02-03T14:56:54.277Z,4.57
2023-02-03T14:59:56.791Z,5.30
2023-02-03T15:03:07.136Z,5.30
2023-02-03T15:06:01.292Z,5.93
2023-02-03T15:08:48.300Z,5.90
2023-02-03T15:11:34.275Z,5.77
2023-02-03T15:14:28.413Z,5.47
2023-02-03T15:17:24.098Z,5.83
2023-02-03T15:20:37.820Z,5.40
2023-02-03T15:23:30.498Z,5.33
2023-02-03T15:26:22.259Z,4.83
2023-02-03T15:29:19.941Z,5.23
2023-02-03T15:32:16.071Z,5.93
2023-02-03T15:35:04.829Z,5.87
2023-02-03T15:37:55.597Z,5.33
2023-02-03T15:40:44.875Z,5.73
2023-02-03T15:43:38.427Z,6.60
2023-02-03T15:46:30.793Z,5.33
2023-02-03T15:49:22.347Z,5.30
2023-02-03T15:52:14.108Z,5.53
2023-02-03T15:55:12.579Z,6.27
2023-02-03T15:57:58.118Z,4.97
2023-02-03T16:00:47.346Z,5.90
2023-02-03T16:03:38.845Z,5.47
2023-02-03T16:06:27.171Z,4.93
2023-02-03T16:09:30.663Z,14.50
2023-02-03T16:12:30.436Z,7.97
2023-02-03T16:15:24.336Z,6.07
2023-02-03T16:18:17.538Z,5.27
2023-02-03T16:21:04.490Z,5.83
2023-02-03T16:23:50.047Z,6.57
2023-02-03T16:26:35.217Z,5.20
2023-02-03T16:29:20.707Z,6.07
2023-02-03T16:32:18.873Z,5.23
2023-02-03T16:35:10.183Z,5.33
2023-02-03T16:37:55.500Z,5.23
2023-02-03T16:40:41.060Z,5.47
2023-02-03T16:43:26.194Z,5.13
2023-02-03T16:46:12.606Z,5.87
2023-02-03T16:48:58.077Z,5.60
2023-02-03T16:51:43.558Z,5.80
2023-02-03T16:54:29.009Z,5.90
2023-02-03T16:57:14.495Z,5.80
2023-02-03T17:00:00.094Z,5.77
2023-02-03T17:02:45.209Z,5.67
2023-02-03T17:05:30.640Z,5.37
2023-02-03T17:08:18.714Z,6.63
2023-02-03T17:11:08.091Z,6.03
2023-02-03T17:13:53.121Z,5.70
2023-02-03T17:16:38.534Z,5.67
2023-02-03T17:19:25.093Z,5.87
2023-02-03T17:22:10.156Z,5.93
2023-02-03T17:24:55.001Z,5.97
2023-02-03T17:27:40.067Z,6.10
2023-02-03T17:30:25.256Z,6.33
2023-02-03T17:33:11.148Z,5.93
2023-02-03T17:36:04.771Z,5.57
2023-02-03T17:54:13.787Z,6.43
2023-02-03T17:56:59.060Z,6.70
2023-02-03T17:59:44.505Z,6.43
2023-02-03T18:02:30.125Z,6.20
2023-02-03T18:05:15.446Z,6.33
2023-02-03T18:08:05.899Z,6.33
2023-02-03T18:10:59.066Z,6.27
2023-02-03T18:13:47.335Z,6.63
2023-02-03T18:16:33.899Z,6.50
2023-02-03T18:19:19.023Z,6.83
2023-02-03T18:22:03.927Z,6.77
2023-02-03T18:24:48.666Z,5.50
2023-02-03T18:27:33.985Z,6.97
2023-02-03T18:30:19.090Z,6.30
2023-02-03T18:33:04.165Z,6.57
2023-02-03T18:35:49.173Z,6.23
2023-02-03T18:38:35.201Z,6.00
2023-02-03T18:41:22.988Z,6.70
2023-02-03T18:44:08.796Z,5.67
2023-02-03T18:46:54.529Z,5.27
2023-02-03T18:49:39.885Z,5.70
2023-02-03T18:52:24.624Z,6.10
2023-02-03T18:55:09.860Z,5.57
2023-02-03T18:57:54.924Z,6.00
2023-02-03T19:00:40.207Z,5.73
2023-02-03T19:03:25.568Z,5.67
2023-02-03T19:06:11.164Z,5.70
2023-02-03T19:08:58.441Z,5.50
2023-02-03T19:11:46.613Z,6.67
2023-02-03T19:14:31.879Z,5.07
2023-02-03T19:17:17.568Z,6.10
2023-02-03T19:20:02.890Z,6.00
2023-02-03T19:22:48.245Z,5.40
2023-02-03T19:25:35.051Z,5.77
2023-02-03T19:28:30.459Z,5.70
2023-02-03T19:31:17.134Z,5.67
2023-02-03T19:34:02.691Z,6.67
2023-02-03T19:36:48.159Z,6.80
2023-02-03T19:39:33.189Z,5.60
2023-02-03T19:42:18.886Z,5.33
2023-02-03T19:45:05.037Z,5.83
2023-02-03T19:47:49.909Z,5.93
2023-02-03T19:50:34.858Z,5.90
2023-02-03T19:53:20.078Z,5.90
2023-02-03T19:56:05.623Z,6.13
2023-02-03T19:58:52.223Z,5.90
2023-02-03T20:01:37.600Z,6.40
2023-02-03T20:04:22.657Z,6.00
2023-02-03T20:07:08.000Z,6.37
2023-02-03T20:09:52.925Z,6.20
2023-02-03T20:12:38.270Z,6.30
2023-02-03T20:15:23.794Z,6.43
2023-02-03T20:18:09.183Z,5.50
2023-02-03T20:20:55.991Z,5.70
2023-02-03T20:23:41.009Z,6.60
2023-02-03T20:26:25.788Z,6.17
2023-02-03T20:29:11.116Z,6.00
2023-02-03T20:31:56.348Z,6.40
2023-02-03T20:34:41.788Z,5.83
2023-02-03T20:37:26.885Z,24.10
2023-02-03T20:40:17.330Z,6.50
2023-02-03T20:43:15.792Z,6.00
2023-02-03T20:46:00.860Z,6.03
2023-02-03T20:48:46.368Z,5.77
2023-02-03T20:51:31.708Z,7.00
2023-02-03T20:54:21.946Z,6.93
2023-02-03T20:57:13.546Z,6.57
2023-02-03T20:59:58.796Z,6.30
2023-02-03T21:02:45.525Z,7.47
2023-02-03T21:05:37.717Z,6.30
2023-02-03T21:08:22.698Z,5.67
2023-02-03T21:11:22.175Z,7.43
2023-02-03T21:14:19.638Z,6.47
2023-02-03T21:17:18.202Z,7.00
2023-02-03T21:20:19.108Z,6.73
2023-02-03T21:23:10.622Z,6.57
2023-02-03T21:25:55.619Z,7.27
2023-02-03T21:28:40.927Z,7.23
2023-02-03T21:31:28.429Z,7.37
2023-02-03T21:34:34.671Z,6.97
2023-02-03T21:37:20.060Z,6.43
2023-02-03T21:40:21.068Z,7.70
2023-02-03T21:43:17.119Z,7.33
2023-02-03T21:46:02.470Z,7.57
2023-02-03T21:48:52.904Z,6.80
2023-02-03T21:51:39.075Z,7.10
2023-02-03T21:54:29.008Z,7.67
2023-02-03T21:57:14.971Z,7.33
2023-02-03T22:00:00.033Z,6.83
2023-02-03T22:02:58.814Z,6.83
2023-02-03T22:05:43.921Z,7.60
2023-02-03T22:08:33.292Z,7.23
2023-02-03T22:11:19.809Z,6.97
2023-02-03T22:14:05.202Z,7.27
2023-02-03T22:16:50.601Z,6.73
2023-02-03T22:19:35.654Z,7.03
2023-02-03T22:22:20.884Z,7.50
2023-02-03T22:25:06.714Z,7.03
2023-02-03T22:27:53.093Z,7.47
2023-02-03T22:30:38.888Z,7.67
2023-02-03T22:33:24.442Z,6.80
2023-02-03T22:36:10.223Z,6.80
2023-02-03T22:38:54.946Z,6.90
2023-02-03T22:41:40.422Z,7.63
2023-02-03T22:44:25.298Z,6.60
2023-02-03T22:47:10.842Z,6.90
2023-02-03T22:49:56.170Z,6.73
2023-02-03T22:52:41.618Z,6.83
2023-02-03T22:55:26.900Z,6.93
2023-02-03T22:58:12.038Z,6.63
2023-02-03T23:00:57.385Z,7.63
2023-02-03T23:03:42.808Z,6.37
2023-02-03T23:06:28.156Z,6.97
2023-02-03T23:09:13.718Z,7.87
2023-02-03T23:11:58.890Z,7.33
2023-02-03T23:14:44.515Z,7.83
2023-02-03T23:17:29.459Z,7.73
2023-02-03T23:20:16.773Z,7.27
2023-02-03T23:23:01.773Z,7.23
2023-02-03T23:25:47.173Z,7.00
2023-02-03T23:28:32.113Z,6.83
2023-02-03T23:31:18.078Z,6.10
2023-02-03T23:34:03.461Z,6.83
2023-02-03T23:36:48.709Z,7.27
2023-02-03T23:39:33.576Z,7.93
2023-02-03T23:42:18.996Z,6.50
2023-02-03T23:45:04.903Z,7.20
2023-02-03T23:47:50.381Z,7.30
2023-02-03T23:50:35.952Z,7.60
2023-02-03T23:53:21.053Z,8.20
2023-02-03T23:56:06.048Z,7.03
2023-02-03T23:58:51.348Z,6.67
